createdAt,value
2019-01-04T00:00:14.594Z,85.30
2019-01-04T00:02:42.172Z,85.40
2019-01-04T00:05:10.828Z,85.70
2019-01-04T00:07:38.403Z,85.70
2019-01-04T00:10:05.988Z,85.80
2019-01-04T00:12:33.625Z,85.50
2019-01-04T00:15:01.210Z,85.30
2019-01-04T00:17:29.535Z,85.70
2019-01-04T00:19:57.518Z,85.70
2019-01-04T00:22:25.086Z,85.80
2019-01-04T00:24:52.677Z,85.90
2019-01-04T00:27:20.265Z,86.10
2019-01-04T00:29:47.835Z,86.20
2019-01-04T00:32:15.414Z,86.30
2019-01-04T00:34:43.038Z,86.40
2019-01-04T00:37:10.603Z,85.80
2019-01-04T00:39:38.172Z,85.70
2019-01-04T00:42:06.082Z,85.70
2019-01-04T00:44:33.655Z,85.70
2019-01-04T00:47:01.243Z,85.60
2019-01-04T00:49:29.875Z,85.60
2019-01-04T00:51:57.451Z,85.50
2019-01-04T00:54:25.021Z,85.00
2019-01-04T00:56:55.546Z,85.00
2019-01-04T00:59:26.106Z,84.90
2019-01-04T01:02:12.786Z,83.50
2019-01-04T01:05:04.178Z,83.40
2019-01-04T01:07:52.524Z,84.30
2019-01-04T01:10:26.262Z,83.80
2019-01-04T01:13:15.419Z,84.00
2019-01-04T01:15:55.029Z,84.20
2019-01-04T01:18:59.885Z,84.30
2019-01-04T01:21:36.115Z,84.80
2019-01-04T01:24:12.371Z,84.30
2019-01-04T01:26:43.709Z,84.70
2019-01-04T01:29:49.536Z,85.10
2019-01-04T01:32:38.129Z,84.80
2019-01-04T01:35:39.829Z,85.10
2019-01-04T01:38:28.921Z,85.10
2019-01-04T01:40:56.792Z,83.80
2019-01-04T01:43:42.865Z,84.70
2019-01-04T01:46:25.919Z,84.90
2019-01-04T01:48:56.205Z,85.70
2019-01-04T01:51:29.450Z,85.10
2019-01-04T01:53:57.057Z,85.30
2019-01-04T01:56:24.642Z,85.40
2019-01-04T01:58:52.216Z,84.90
2019-01-04T02:01:19.819Z,84.70
2019-01-04T02:03:48.157Z,85.00
2019-01-04T02:06:15.731Z,84.90
2019-01-04T02:08:43.346Z,85.30
2019-01-04T02:11:10.915Z,85.50
2019-01-04T02:13:38.486Z,85.80
2019-01-04T02:16:06.373Z,85.40
2019-01-04T02:18:33.945Z,85.40
2019-01-04T02:21:01.512Z,85.40
2019-01-04T02:23:29.474Z,85.50
2019-01-04T02:25:57.061Z,85.80
2019-01-04T02:28:24.643Z,85.40
2019-01-04T02:30:52.268Z,85.40
2019-01-04T02:33:19.841Z,84.80
2019-01-04T02:35:48.187Z,83.80
2019-01-04T02:38:15.822Z,84.40
2019-01-04T02:40:44.126Z,84.70
2019-01-04T02:43:11.699Z,84.60
2019-01-04T02:45:39.665Z,84.90
2019-01-04T02:48:07.237Z,84.90
2019-01-04T02:50:34.808Z,85.40
2019-01-04T02:53:02.961Z,86.10
2019-01-04T02:55:30.525Z,85.60
2019-01-04T02:57:58.094Z,85.70
2019-01-04T03:00:25.734Z,85.50
2019-01-04T03:02:53.294Z,85.50
2019-01-04T03:05:20.872Z,85.40
2019-01-04T03:07:48.843Z,85.70
2019-01-04T03:10:16.413Z,85.70
2019-01-04T03:12:43.986Z,85.90
2019-01-04T03:15:11.892Z,85.90
2019-01-04T03:17:39.461Z,85.00
2019-01-04T03:20:07.061Z,84.40
2019-01-04T03:22:35.030Z,83.90
2019-01-04T03:25:02.609Z,83.40
2019-01-04T03:27:30.189Z,83.50
2019-01-04T03:29:58.119Z,83.70
2019-01-04T03:32:25.691Z,83.80
2019-01-04T03:34:53.260Z,83.80
2019-01-04T03:37:20.908Z,84.20
2019-01-04T03:39:48.483Z,84.50
2019-01-04T03:42:16.060Z,84.80
2019-01-04T03:44:44.437Z,85.00
2019-01-04T03:47:12.774Z,85.00
2019-01-04T03:49:40.343Z,85.00
2019-01-04T03:52:08.511Z,85.40
2019-01-04T03:54:36.086Z,85.30
2019-01-04T03:57:03.673Z,85.40
2019-01-04T03:59:32.438Z,85.70
2019-01-04T04:02:00.023Z,85.30
2019-01-04T04:04:28.368Z,84.40
2019-01-04T04:06:56.241Z,85.50
2019-01-04T04:09:23.840Z,84.60
2019-01-04T04:11:52.179Z,85.30
2019-01-04T04:14:20.053Z,86.00
2019-01-04T04:16:47.625Z,85.50
2019-01-04T04:19:15.211Z,85.60
2019-01-04T04:21:44.275Z,85.80
2019-01-04T04:24:11.854Z,85.80
2019-01-04T04:26:39.426Z,85.20
2019-01-04T04:29:07.796Z,85.50
2019-01-04T04:31:35.371Z,85.50
2019-01-04T04:34:03.718Z,85.90
2019-01-04T04:36:31.726Z,85.80
2019-01-04T04:38:59.619Z,86.10
2019-01-04T04:41:27.217Z,86.20
2019-01-04T04:43:55.820Z,86.30
2019-01-04T04:46:23.387Z,86.40
2019-01-04T04:48:50.959Z,86.90
2019-01-04T04:51:19.616Z,86.90
2019-01-04T04:53:47.185Z,86.90
2019-01-04T04:56:14.754Z,86.90
2019-01-04T04:58:42.356Z,86.40
2019-01-04T05:01:09.927Z,87.00
2019-01-04T05:03:37.497Z,87.00
2019-01-04T05:06:05.701Z,87.00
2019-01-04T05:08:33.378Z,87.10
2019-01-04T05:11:00.928Z,87.00
2019-01-04T05:13:28.529Z,86.80
2019-01-04T05:15:56.866Z,86.50
2019-01-04T05:18:24.490Z,86.40
2019-01-04T05:20:53.113Z,86.80
2019-01-04T05:23:20.683Z,86.80
2019-01-04T05:25:48.509Z,86.50
2019-01-04T05:28:16.828Z,86.90
2019-01-04T05:30:44.402Z,86.50
2019-01-04T05:33:12.222Z,86.70
2019-01-04T05:35:40.121Z,87.20
2019-01-04T05:38:07.698Z,87.50
2019-01-04T05:40:35.259Z,87.80
2019-01-04T05:43:03.118Z,87.90
2019-01-04T05:45:30.695Z,87.10
2019-01-04T05:47:59.032Z,87.50
2019-01-04T05:50:26.913Z,87.10
2019-01-04T05:52:54.498Z,87.20
2019-01-04T05:55:22.072Z,87.40
2019-01-04T05:57:50.730Z,87.40
2019-01-04T06:00:18.297Z,87.30
2019-01-04T06:02:45.869Z,87.40
2019-01-04T06:05:13.477Z,87.60
2019-01-04T06:07:41.055Z,88.10
2019-01-04T06:10:08.626Z,88.40
2019-01-04T06:12:36.493Z,88.80
2019-01-04T06:15:04.082Z,89.40
2019-01-04T06:17:31.661Z,90.00
2019-01-04T06:20:00.028Z,90.30
2019-01-04T06:22:27.599Z,90.20
2019-01-04T06:24:55.951Z,90.50
2019-01-04T06:27:23.928Z,90.50
2019-01-04T06:29:51.515Z,90.70
2019-01-04T06:32:19.850Z,91.40
2019-01-04T06:34:47.735Z,91.40
2019-01-04T06:37:15.316Z,91.00
2019-01-04T06:39:43.664Z,90.90
2019-01-04T06:42:11.641Z,91.10
2019-01-04T06:44:39.219Z,90.80
2019-01-04T06:47:09.252Z,90.80
2019-01-04T06:49:37.910Z,91.00
2019-01-04T06:52:05.485Z,91.00
2019-01-04T06:55:10.629Z,90.60
2019-01-04T06:57:38.201Z,90.60
2019-01-04T07:00:06.547Z,90.60
2019-01-04T07:02:34.524Z,90.60
2019-01-04T07:05:02.101Z,90.70
2019-01-04T07:07:29.684Z,90.70
2019-01-04T07:09:58.053Z,90.80
2019-01-04T07:12:26.400Z,90.40
2019-01-04T07:14:53.987Z,90.40
2019-01-04T07:17:21.946Z,90.30
2019-01-04T07:19:49.517Z,89.90
2019-01-04T07:22:17.096Z,89.30
2019-01-04T07:24:45.458Z,89.50
2019-01-04T07:27:13.038Z,90.00
2019-01-04T07:29:41.373Z,89.70
2019-01-04T07:32:09.248Z,89.70
2019-01-04T07:34:36.841Z,89.70
2019-01-04T07:37:04.401Z,89.90
2019-01-04T07:39:33.052Z,90.20
2019-01-04T07:42:00.638Z,90.10
2019-01-04T07:44:28.209Z,90.20
2019-01-04T07:46:56.872Z,90.00
2019-01-04T07:49:24.449Z,90.00
2019-01-04T07:51:52.022Z,89.20
2019-01-04T07:54:20.393Z,89.40
2019-01-04T07:56:47.965Z,89.30
2019-01-04T07:59:16.299Z,89.70
2019-01-04T08:01:44.191Z,89.70
2019-01-04T08:04:11.765Z,89.90
2019-01-04T08:06:39.344Z,90.00
2019-01-04T08:09:08.471Z,90.00
2019-01-04T08:11:36.040Z,90.00
2019-01-04T08:14:03.605Z,90.10
2019-01-04T08:16:31.264Z,90.10
2019-01-04T08:18:58.857Z,90.20
2019-01-04T08:21:26.441Z,90.20
2019-01-04T08:23:55.713Z,90.30
2019-01-04T08:26:23.284Z,90.20
2019-01-04T08:28:50.869Z,89.90
2019-01-04T08:31:19.269Z,89.60
2019-01-04T08:33:46.848Z,89.50
2019-01-04T08:36:14.415Z,88.80
2019-01-04T08:38:42.075Z,88.70
2019-01-04T08:41:09.647Z,88.40
2019-01-04T08:43:37.242Z,88.00
2019-01-04T08:46:05.584Z,88.10
2019-01-04T08:48:33.157Z,87.40
2019-01-04T08:51:00.723Z,86.60
2019-01-04T08:53:50.540Z,86.30
2019-01-04T08:56:18.886Z,86.60
2019-01-04T08:58:47.486Z,86.60
2019-01-04T09:01:15.659Z,87.20
2019-01-04T09:03:45.361Z,86.80
2019-01-04T09:06:12.959Z,86.40
2019-01-04T09:08:41.840Z,85.10
2019-01-04T09:11:10.130Z,85.10
2019-01-04T09:13:38.520Z,84.40
2019-01-04T09:16:07.011Z,84.60
2019-01-04T09:18:34.581Z,84.50
2019-01-04T09:21:02.150Z,84.80
2019-01-04T09:23:30.021Z,85.00
2019-01-04T09:25:57.598Z,85.00
2019-01-04T09:28:25.178Z,85.00
2019-01-04T09:30:52.811Z,85.00
2019-01-04T09:33:20.393Z,84.90
2019-01-04T09:35:47.968Z,85.00
2019-01-04T09:38:16.009Z,83.90
2019-01-04T09:40:43.556Z,82.30
2019-01-04T09:43:11.120Z,81.50
2019-01-04T09:45:39.092Z,82.00
2019-01-04T09:48:07.409Z,82.30
2019-01-04T09:50:34.983Z,82.30
2019-01-04T09:53:02.929Z,82.80
2019-01-04T09:55:30.501Z,83.60
2019-01-04T09:57:58.073Z,83.10
2019-01-04T10:00:26.597Z,83.00
2019-01-04T10:02:53.743Z,82.80
2019-01-04T10:05:21.308Z,83.20
2019-01-04T10:07:49.261Z,82.60
2019-01-04T10:10:17.888Z,82.30
2019-01-04T10:12:45.465Z,82.20
2019-01-04T10:15:13.336Z,82.20
2019-01-04T10:17:40.944Z,82.10
2019-01-04T10:20:08.484Z,82.10
2019-01-04T10:22:37.452Z,82.40
2019-01-04T10:25:05.042Z,82.10
2019-01-04T10:27:33.378Z,82.00
2019-01-04T10:30:01.019Z,81.20
2019-01-04T10:32:28.587Z,81.10
2019-01-04T10:34:56.150Z,80.30
2019-01-04T10:37:23.775Z,80.30
2019-01-04T10:39:52.106Z,79.20
2019-01-04T10:42:19.673Z,79.20
2019-01-04T10:44:47.321Z,79.10
2019-01-04T10:47:14.848Z,79.20
2019-01-04T10:49:42.426Z,79.30
2019-01-04T10:52:10.055Z,79.10
2019-01-04T10:54:38.399Z,78.70
2019-01-04T10:57:05.970Z,78.20
2019-01-04T10:59:34.326Z,78.40
2019-01-04T11:02:01.895Z,78.20
2019-01-04T11:04:29.760Z,77.80
2019-01-04T11:06:57.646Z,78.00
2019-01-04T11:09:25.211Z,78.10
2019-01-04T11:11:52.931Z,78.40
2019-01-04T11:14:20.801Z,78.60
2019-01-04T11:16:48.370Z,78.60
2019-01-04T11:19:15.935Z,78.90
2019-01-04T11:21:43.833Z,78.90
2019-01-04T11:24:32.702Z,79.10
2019-01-04T11:27:00.303Z,79.40
2019-01-04T11:29:36.640Z,79.20
2019-01-04T11:32:07.186Z,79.80
2019-01-04T11:34:41.478Z,79.30
2019-01-04T11:37:24.962Z,79.20
2019-01-04T11:39:58.567Z,79.30
2019-01-04T11:42:32.303Z,79.30
2019-01-04T11:45:05.593Z,79.20
2019-01-04T11:47:45.533Z,79.30
2019-01-04T11:50:36.966Z,79.40
2019-01-04T11:53:04.574Z,79.40
2019-01-04T11:55:32.911Z,79.50
2019-01-04T11:58:00.487Z,79.50
2019-01-04T12:00:28.451Z,79.60
2019-01-04T12:02:56.025Z,79.40
2019-01-04T12:05:23.611Z,79.20
2019-01-04T12:07:51.238Z,79.30
2019-01-04T12:10:18.813Z,79.30
2019-01-04T12:12:46.402Z,78.00
2019-01-04T12:15:14.829Z,77.40
2019-01-04T12:17:42.404Z,77.40
2019-01-04T12:20:09.973Z,77.40
2019-01-04T12:22:37.581Z,77.30
2019-01-04T12:25:05.150Z,76.90
2019-01-04T12:27:32.721Z,76.60
2019-01-04T12:30:00.628Z,76.80
2019-01-04T12:32:28.192Z,76.70
2019-01-04T12:34:55.763Z,76.60
2019-01-04T12:37:23.709Z,76.80
2019-01-04T12:39:51.272Z,76.50
2019-01-04T12:42:18.844Z,76.00
2019-01-04T12:44:47.635Z,75.40
2019-01-04T12:47:15.201Z,75.60
2019-01-04T12:49:42.763Z,75.30
2019-01-04T12:52:10.408Z,75.50
2019-01-04T12:54:37.980Z,74.70
2019-01-04T12:57:05.558Z,74.50
2019-01-04T12:59:34.615Z,74.70
2019-01-04T13:02:02.175Z,75.10
2019-01-04T13:04:29.747Z,75.60
2019-01-04T13:06:57.624Z,75.90
2019-01-04T13:09:25.301Z,76.20
2019-01-04T13:11:52.865Z,76.40
2019-01-04T13:14:21.327Z,76.10
2019-01-04T13:16:48.889Z,76.20
2019-01-04T13:19:16.491Z,76.80
2019-01-04T13:21:44.937Z,76.50
2019-01-04T13:24:12.512Z,76.30
2019-01-04T13:26:40.084Z,75.50
2019-01-04T13:29:08.465Z,75.00
2019-01-04T13:31:36.800Z,75.40
2019-01-04T13:34:04.362Z,75.40
2019-01-04T13:36:32.000Z,75.90
2019-01-04T13:38:59.566Z,76.00
2019-01-04T13:41:27.135Z,76.40
2019-01-04T13:43:54.800Z,76.70
2019-01-04T13:46:22.359Z,77.10
2019-01-04T13:48:50.235Z,77.70
2019-01-04T13:51:17.847Z,78.10
2019-01-04T13:53:46.182Z,79.00
2019-01-04T13:56:13.752Z,79.00
2019-01-04T13:58:42.147Z,79.60
2019-01-04T14:01:09.718Z,80.40
2019-01-04T14:03:37.284Z,81.70
2019-01-04T14:06:06.456Z,79.70
2019-01-04T14:08:34.026Z,79.70
2019-01-04T14:11:01.617Z,78.90
2019-01-04T14:13:30.012Z,80.00
2019-01-04T14:15:57.594Z,80.00
2019-01-04T14:18:25.150Z,79.60
2019-01-04T14:20:53.066Z,79.00
2019-01-04T14:23:28.903Z,79.20
2019-01-04T14:25:54.711Z,79.50
2019-01-04T14:28:22.373Z,79.40
2019-01-04T14:30:49.941Z,79.40
2019-01-04T14:33:17.510Z,79.70
2019-01-04T14:35:45.130Z,79.80
2019-01-04T14:38:12.729Z,80.00
2019-01-04T14:40:40.303Z,80.20
2019-01-04T14:43:08.357Z,79.70
2019-01-04T14:45:35.928Z,79.80
2019-01-04T14:48:03.499Z,80.40
2019-01-04T14:50:31.388Z,80.20
2019-01-04T14:52:59.732Z,80.30
2019-01-04T14:55:27.305Z,80.30
2019-01-04T14:57:55.346Z,79.80
2019-01-04T15:00:22.905Z,79.70
2019-01-04T15:02:50.486Z,79.70
2019-01-04T15:05:18.096Z,79.60
2019-01-04T15:07:46.434Z,79.20
2019-01-04T15:10:14.005Z,79.20
2019-01-04T15:12:42.000Z,79.00
2019-01-04T15:15:10.346Z,78.90
2019-01-04T15:17:37.936Z,78.90
2019-01-04T15:20:06.504Z,78.70
2019-01-04T15:22:34.073Z,77.90
2019-01-04T15:25:01.644Z,77.10
2019-01-04T15:27:29.601Z,76.20
2019-01-04T15:29:57.175Z,75.30
2019-01-04T15:32:24.745Z,74.90
2019-01-04T15:34:53.132Z,74.50
2019-01-04T15:37:20.707Z,74.40
2019-01-04T15:39:48.282Z,74.80
2019-01-04T15:42:16.158Z,75.30
2019-01-04T15:44:43.723Z,75.70
2019-01-04T15:47:11.303Z,76.30
2019-01-04T15:49:39.622Z,76.60
2019-01-04T15:52:07.290Z,76.80
2019-01-04T15:54:34.866Z,76.60
2019-01-04T15:57:02.503Z,77.50
2019-01-04T15:59:30.096Z,77.80
2019-01-04T16:01:57.710Z,77.50
2019-01-04T16:04:25.739Z,77.90
2019-01-04T16:06:53.441Z,77.50
2019-01-04T16:09:21.013Z,77.60
2019-01-04T16:11:48.722Z,77.50
2019-01-04T16:14:16.329Z,77.60
2019-01-04T16:16:43.913Z,77.40
2019-01-04T16:19:11.624Z,77.50
2019-01-04T16:21:39.350Z,77.70
2019-01-04T16:24:07.025Z,77.80
2019-01-04T16:26:35.443Z,78.10
2019-01-04T16:29:03.114Z,77.90
2019-01-04T16:31:30.756Z,78.00
2019-01-04T16:34:06.959Z,78.20
2019-01-04T16:36:34.564Z,78.50
2019-01-04T16:39:02.168Z,78.80
2019-01-04T16:41:29.804Z,79.30
2019-01-04T16:43:57.406Z,78.80
2019-01-04T16:46:24.998Z,78.10
2019-01-04T16:48:53.889Z,79.10
2019-01-04T16:51:22.258Z,79.20
2019-01-04T16:53:50.612Z,79.40
2019-01-04T16:56:18.353Z,79.00
2019-01-04T16:58:45.958Z,79.20
2019-01-04T17:01:13.558Z,79.40
2019-01-04T17:03:41.227Z,79.70
2019-01-04T17:06:08.805Z,80.30
2019-01-04T17:08:36.425Z,80.40
2019-01-04T17:11:04.815Z,81.00
2019-01-04T17:13:32.404Z,81.00
2019-01-04T17:15:59.985Z,81.20
2019-01-04T17:18:27.620Z,81.50
2019-01-04T17:20:55.259Z,81.50
2019-01-04T17:23:22.951Z,81.60
2019-01-04T17:25:50.633Z,81.90
2019-01-04T17:28:18.209Z,82.20
2019-01-04T17:30:45.781Z,82.50
2019-01-04T17:33:13.428Z,82.70
2019-01-04T17:35:41.000Z,82.90
2019-01-04T17:38:08.592Z,83.10
2019-01-04T17:40:37.342Z,82.70
2019-01-04T17:43:04.916Z,82.70
2019-01-04T17:45:32.493Z,82.20
2019-01-04T17:48:00.873Z,82.40
2019-01-04T17:50:29.215Z,82.70
2019-01-04T17:52:56.792Z,82.60
2019-01-04T17:55:24.758Z,82.40
2019-01-04T17:57:52.332Z,82.50
2019-01-04T18:00:19.900Z,82.70
2019-01-04T18:02:47.867Z,83.00
2019-01-04T18:05:15.441Z,83.10
2019-01-04T18:07:43.791Z,83.10
2019-01-04T18:10:11.416Z,83.10
2019-01-04T18:12:38.988Z,83.30
2019-01-04T18:15:06.563Z,83.50
2019-01-04T18:17:34.180Z,83.00
2019-01-04T18:20:01.765Z,82.80
2019-01-04T18:22:29.334Z,82.90
2019-01-04T18:24:57.042Z,83.30
2019-01-04T18:27:24.551Z,83.70
2019-01-04T18:29:52.147Z,83.90
2019-01-04T18:32:19.751Z,84.00
2019-01-04T18:34:47.326Z,84.30
2019-01-04T18:37:15.426Z,84.50
2019-01-04T18:39:44.531Z,84.40
2019-01-04T18:42:12.107Z,84.40
2019-01-04T18:44:39.681Z,84.50
2019-01-04T18:47:08.365Z,84.50
2019-01-04T18:49:35.947Z,84.50
2019-01-04T18:52:04.290Z,84.80
2019-01-04T18:54:32.262Z,84.80
2019-01-04T18:56:59.835Z,84.90
2019-01-04T18:59:27.405Z,85.00
2019-01-04T19:01:55.039Z,85.10
2019-01-04T19:04:22.660Z,85.40
2019-01-04T19:06:50.200Z,84.60
2019-01-04T19:09:18.587Z,84.40
2019-01-04T19:11:46.937Z,84.20
2019-01-04T19:14:14.507Z,84.20
2019-01-04T19:16:42.152Z,84.20
2019-01-04T19:19:09.717Z,84.20
2019-01-04T19:21:37.285Z,84.10
2019-01-04T19:24:04.902Z,84.10
2019-01-04T19:26:32.792Z,84.20
2019-01-04T19:29:00.375Z,84.50
2019-01-04T19:31:28.002Z,83.80
2019-01-04T19:33:55.580Z,83.50
2019-01-04T19:36:23.262Z,83.20
2019-01-04T19:38:50.884Z,83.20
2019-01-04T19:41:18.467Z,82.80
2019-01-04T19:43:46.045Z,83.00
2019-01-04T19:46:13.915Z,83.00
2019-01-04T19:48:41.493Z,82.80
2019-01-04T19:51:09.064Z,82.80
2019-01-04T19:53:38.540Z,82.60
2019-01-04T19:56:06.114Z,82.60
2019-01-04T19:58:33.706Z,82.40
2019-01-04T20:01:03.076Z,82.50
2019-01-04T20:03:30.676Z,82.60
2019-01-04T20:06:19.934Z,82.60
2019-01-04T20:09:13.780Z,83.30
2019-01-04T20:12:15.262Z,82.60
2019-01-04T20:15:17.005Z,83.10
2019-01-04T20:17:50.401Z,83.00
2019-01-04T20:20:17.104Z,82.40
2019-01-04T20:22:45.113Z,82.30
2019-01-04T20:25:31.051Z,82.30
2019-01-04T20:28:07.610Z,82.30
2019-01-04T20:30:37.983Z,81.90
2019-01-04T20:33:14.181Z,81.40
2019-01-04T20:36:00.478Z,81.40
2019-01-04T20:38:39.944Z,81.30
2019-01-04T20:41:07.874Z,81.70
2019-01-04T20:43:53.663Z,82.00
2019-01-04T20:46:29.999Z,82.30
2019-01-04T20:49:16.390Z,81.90
2019-01-04T20:51:44.002Z,81.90
2019-01-04T20:54:23.622Z,81.40
2019-01-04T20:56:57.244Z,81.60
2019-01-04T20:59:27.489Z,82.00
2019-01-04T21:01:58.530Z,82.40
2019-01-04T21:04:45.063Z,82.00
2019-01-04T21:07:21.147Z,82.50
2019-01-04T21:09:51.849Z,82.70
2019-01-04T21:12:31.565Z,82.90
2019-01-04T21:14:59.134Z,83.20
2019-01-04T21:17:33.306Z,84.30
2019-01-04T21:20:09.602Z,83.70
2019-01-04T21:22:40.883Z,83.00
2019-01-04T21:25:09.251Z,82.90
2019-01-04T21:27:46.584Z,82.90
2019-01-04T21:30:29.469Z,82.80
2019-01-04T21:33:12.976Z,83.10
2019-01-04T21:35:40.552Z,83.00
2019-01-04T21:38:14.415Z,84.00
2019-01-04T21:41:00.962Z,83.30
2019-01-04T21:43:34.359Z,82.50
2019-01-04T21:46:05.080Z,81.70
2019-01-04T21:48:32.645Z,81.70
2019-01-04T21:51:06.174Z,82.10
2019-01-04T21:53:53.770Z,82.40
2019-01-04T21:56:21.341Z,82.40
2019-01-04T21:59:07.008Z,82.50
2019-01-04T22:01:43.249Z,82.90
2019-01-04T22:04:10.832Z,83.20
2019-01-04T22:06:53.561Z,82.90
2019-01-04T22:09:32.749Z,82.70
2019-01-04T22:12:18.265Z,82.80
2019-01-04T22:14:51.752Z,82.90
2019-01-04T22:17:22.267Z,83.10
2019-01-04T22:19:55.326Z,83.50
2019-01-04T22:22:23.662Z,84.10
2019-01-04T22:24:54.017Z,83.80
2019-01-04T22:27:21.587Z,83.90
2019-01-04T22:29:52.361Z,84.60
2019-01-04T22:32:26.095Z,83.80
2019-01-04T22:35:02.182Z,83.90
2019-01-04T22:37:38.512Z,84.00
2019-01-04T22:40:11.952Z,84.10
2019-01-04T22:42:48.080Z,84.50
2019-01-04T22:45:33.757Z,83.90
2019-01-04T22:48:04.366Z,83.70
2019-01-04T22:50:37.650Z,83.90
2019-01-04T22:53:23.804Z,84.00
2019-01-04T22:55:51.382Z,84.20
2019-01-04T22:58:37.130Z,84.50
2019-01-04T23:01:07.314Z,84.70
2019-01-04T23:03:41.900Z,85.10
2019-01-04T23:06:09.475Z,85.00
2019-01-04T23:08:37.046Z,85.10
2019-01-04T23:11:13.500Z,85.10
2019-01-04T23:13:43.914Z,85.10
2019-01-04T23:16:30.710Z,85.60
2019-01-04T23:19:07.027Z,84.90
2019-01-04T23:22:02.342Z,84.10
2019-01-04T23:24:30.681Z,83.70
2019-01-04T23:27:00.974Z,83.70
2019-01-04T23:29:28.580Z,84.00
2019-01-04T23:32:01.684Z,84.20
2019-01-04T23:34:34.891Z,84.60
2019-01-04T23:37:08.997Z,85.50
2019-01-04T23:39:42.579Z,85.30
2019-01-04T23:42:10.148Z,85.60
2019-01-04T23:44:46.342Z,85.80
2019-01-04T23:47:32.653Z,86.70
2019-01-04T23:50:00.681Z,86.60
2019-01-04T23:52:34.175Z,85.90
2019-01-04T23:55:01.747Z,85.90
2019-01-04T23:57:32.165Z,85.90
